Aérodrome :
LOGIN :

S'inscrire | Disclaimer

   EN    FR    IT 

 










Légende :    VFR   VFR Marginal   IFR   IFR Intensif   IFR Très Intensif
Visi : 
Plafond : 
>= 8 km
>= 3000ft
5 à 8 km
1000 à 3000 ft
1500m à 5 km
500 à 1000 ft
800 à 1500m
200 à 500 ft
< 800m
< 200 ft
Symboles :   Orages  Brouillard  Fortes neiges  Fortes précipitations  Vent > 20 kt
SIGMETs :   Divers  Orages  Givrage  Turbulence  Onde Orograph.  Cendres Volcan.






- Altitude de l'aérodrome : 353 ft
- Code IATA : ZAG


LDZA - Zagreb Pleso

DERNIER METAR :
  • 200600Z 34003KT 1000 R05/P2000N R23/P2000N -DZ BR OVC007 01/01 Q1042 NOSIG

METARs EXPIRÉS :
  • 200530Z 34002KT 1200 R05/P2000N R23/P2000N -DZ BR FEW005 OVC012 01/01 Q1041 REDZ BECMG 2500
  • 200500Z 28002KT 1000 R05/P2000N R23/P2000N DZ BR OVC010 01/01 Q1041 NOSIG
  • 200430Z 00000KT 1000 R05/2000N R23/1800N DZ BCFG OVC010 01/01 Q1041 NOSIG
  • 200400Z 00000KT 2000 -DZ BR OVC009 01/01 Q1040 TEMPO 1200
  • 200330Z 17001KT 5000 -DZ OVC010 01/01 Q1040 NOSIG

TAF TAF LDZA
Valide du 20 à 06h jusqu'au 21 à 06h UTC


200525Z 2006/2106 VRB02KT 8000 BKN030 TX03/2013Z TNM02/2104Z
TEMPO 2006/2012 1500 -FZDZ BR OVC005
BECMG 2021/2023 3000 BR OVC010
ATIS : +385 1 6-259-214



MET'MAP, la Météo Aéronautique d'un coup d'oeil ! - Copyright ORBIFLY Décembre 2007 - Disclaimer

ORBIFLY MET'MAP TEAM :

Programmation & Développement : Alexandra Zaïnal
Sur une idée originale de : Baudouin d'Aumeries
Assistance à la programmation : Marc-Olivier Méhu
Soutien technique & logistique : Manuel Goepfert

Contact : metmap@orbifly.com




SOURCES & CREDITS :

   NOAA